Time;durP1;ratioP1;P1;durP2;ratioP2;P2;SDS_P1;SDS_P2;PMS_P1;PMS_P2;Temp;Humidity;BMP_temperature;BMP_pressure;BME280_temperature;BME280_humidity;BME280_pressure;Samples;Min_cycle;Max_cycle;Signal;HPM_P1;HPM_P2
2023/08/28 00:00:03;;;;;;;9.90;8.35;;;22.00;64.80;;;;;;5046091;27;115081;-77
2023/08/28 00:02:32;;;;;;;11.32;7.63;;;22.10;63.90;;;;;;5046848;27;114249;-77
2023/08/28 00:04:59;;;;;;;11.10;9.10;;;22.30;63.90;;;;;;5046936;27;114316;-77
2023/08/28 00:07:27;;;;;;;7.75;5.97;;;22.40;64.10;;;;;;5045833;27;115039;-77
2023/08/28 00:09:54;;;;;;;11.18;8.05;;;22.50;62.70;;;;;;5044609;27;115412;-78
2023/08/28 00:12:21;;;;;;;10.45;8.07;;;22.50;63.20;;;;;;5046750;27;114093;-78
2023/08/28 00:14:48;;;;;;;10.15;7.13;;;22.60;63.10;;;;;;5046836;27;114184;-78
2023/08/28 00:17:17;;;;;;;9.55;7.35;;;22.80;62.60;;;;;;5045692;27;114893;-78
2023/08/28 00:19:44;;;;;;;8.75;6.72;;;22.90;62.60;;;;;;5045600;27;114701;-77
2023/08/28 00:22:11;;;;;;;7.82;5.78;;;23.10;62.10;;;;;;5046181;27;114318;-78
2023/08/28 00:24:39;;;;;;;10.05;6.88;;;23.30;61.70;;;;;;5046683;27;114288;-77
2023/08/28 00:27:06;;;;;;;7.65;5.63;;;23.30;61.80;;;;;;5045553;27;114493;-76
2023/08/28 00:29:33;;;;;;;5.82;3.72;;;23.50;61.00;;;;;;5027414;27;115158;-76
2023/08/28 00:32:00;;;;;;;7.85;5.28;;;23.60;59.80;;;;;;5045099;27;114351;-77
2023/08/28 00:34:27;;;;;;;6.43;5.15;;;23.70;60.10;;;;;;5046624;27;114336;-78
2023/08/28 00:36:55;;;;;;;7.53;3.90;;;23.70;60.20;;;;;;5044503;27;115073;-77
2023/08/28 00:39:22;;;;;;;6.78;3.33;;;23.70;59.20;;;;;;5027945;27;114929;-77
2023/08/28 00:41:49;;;;;;;8.07;4.32;;;23.70;59.20;;;;;;5028588;27;114043;-77
2023/08/28 00:44:16;;;;;;;5.15;3.83;;;23.70;59.40;;;;;;5027957;27;114429;-77
2023/08/28 00:46:44;;;;;;;4.57;3.33;;;23.60;59.40;;;;;;5043483;27;114911;-77
2023/08/28 00:49:11;;;;;;;4.93;3.75;;;23.40;59.60;;;;;;5044017;27;114824;-77
2023/08/28 00:51:38;;;;;;;5.07;3.58;;;23.40;59.60;;;;;;5028215;27;114214;-78
2023/08/28 00:54:07;;;;;;;6.10;3.90;;;23.60;59.10;;;;;;5045127;27;114775;-77
2023/08/28 00:56:36;;;;;;;7.68;4.47;;;23.60;59.70;;;;;;5027721;27;114808;-77
2023/08/28 00:59:03;;;;;;;4.95;2.97;;;23.70;59.50;;;;;;5045042;27;116547;-77
2023/08/28 01:01:30;;;;;;;3.78;2.58;;;23.70;58.60;;;;;;5044828;27;114146;-77
2023/08/28 01:03:57;;;;;;;3.47;2.35;;;23.70;58.10;;;;;;5029780;27;113995;-77
2023/08/28 01:06:28;;;;;;;3.45;2.05;;;23.60;58.20;;;;;;5046704;27;119207;-77
2023/08/28 01:09:20;;;;;;;3.88;2.67;;;23.70;58.10;;;;;;5031144;27;114614;-77
2023/08/28 01:11:56;;;;;;;4.63;3.15;;;23.70;59.00;;;;;;5049206;27;114405;-77
2023/08/28 01:14:26;;;;;;;3.88;2.80;;;23.70;59.20;;;;;;5032200;27;114320;-77
2023/08/28 01:17:04;;;;;;;4.50;2.83;;;23.80;58.90;;;;;;5047851;27;115069;-77
2023/08/28 01:19:40;;;;;;;3.60;2.63;;;23.90;58.60;;;;;;5030882;27;116210;-77
2023/08/28 01:22:22;;;;;;;4.45;2.42;;;23.90;58.40;;;;;;5031949;27;114479;-78
2023/08/28 01:24:51;;;;;;;3.92;2.72;;;24.00;58.10;;;;;;5049456;27;114073;-77
2023/08/28 01:27:21;;;;;;;4.32;2.30;;;24.00;58.00;;;;;;5030634;27;116146;-77
2023/08/28 01:30:08;;;;;;;3.60;2.17;;;24.00;57.90;;;;;;5031053;27;116497;-77
2023/08/28 01:32:36;;;;;;;4.13;2.15;;;24.10;57.20;;;;;;5031398;27;114347;-77
2023/08/28 01:35:06;;;;;;;3.00;2.10;;;24.00;57.60;;;;;;5031276;27;114285;-76
2023/08/28 01:37:58;;;;;;;3.00;1.83;;;24.10;57.60;;;;;;5030001;27;114974;-77
2023/08/28 01:40:29;;;;;;;3.65;2.10;;;24.20;57.10;;;;;;5033017;27;114956;-77
2023/08/28 01:42:56;;;;;;;3.42;2.00;;;24.10;57.50;;;;;;5031553;27;115215;-77
2023/08/28 01:45:23;;;;;;;4.38;1.70;;;24.10;57.30;;;;;;5048142;27;114039;-77
2023/08/28 01:47:50;;;;;;;5.45;1.80;;;24.10;56.10;;;;;;5030093;27;115190;-77
2023/08/28 01:50:17;;;;;;;2.95;1.75;;;24.00;56.50;;;;;;5046845;27;115019;-77
2023/08/28 01:52:44;;;;;;;3.38;2.05;;;23.90;57.30;;;;;;5048864;27;114339;-77
2023/08/28 01:55:11;;;;;;;3.10;1.90;;;23.90;57.40;;;;;;5047985;27;114339;-78
2023/08/28 01:57:38;;;;;;;3.17;1.70;;;23.90;57.60;;;;;;5013474;27;116121;-78
2023/08/28 02:00:06;;;;;;;3.78;1.80;;;24.00;57.30;;;;;;5046870;27;114784;-78
2023/08/28 02:02:43;;;;;;;2.55;1.50;;;24.00;57.20;;;;;;5048429;27;114317;-77
2023/08/28 02:05:10;;;;;;;4.22;1.80;;;24.00;57.30;;;;;;5047433;27;114342;-77
2023/08/28 02:07:38;;;;;;;4.75;1.85;;;24.00;57.30;;;;;;5048095;27;114080;-77
2023/08/28 02:10:05;;;;;;;3.17;1.60;;;24.10;57.00;;;;;;5047485;27;115176;-78
2023/08/28 02:12:33;;;;;;;2.72;1.60;;;24.20;56.80;;;;;;5048966;27;114037;-77
2023/08/28 02:15:00;;;;;;;2.53;1.75;;;24.10;56.70;;;;;;5047107;27;114690;-77
2023/08/28 02:17:27;;;;;;;2.55;1.50;;;24.10;56.70;;;;;;5046354;27;115510;-76
2023/08/28 02:19:54;;;;;;;2.65;1.50;;;24.20;56.80;;;;;;5046857;27;115028;-76
2023/08/28 02:22:25;;;;;;;3.20;1.73;;;24.20;56.50;;;;;;5047483;27;114425;-76
2023/08/28 02:24:52;;;;;;;2.78;1.60;;;24.20;56.50;;;;;;5030735;27;114372;-77
2023/08/28 02:27:19;;;;;;;3.17;1.58;;;24.20;56.40;;;;;;5045973;27;114879;-78
2023/08/28 02:29:46;;;;;;;3.03;1.70;;;24.10;54.70;;;;;;5046057;27;114945;-78
2023/08/28 02:32:14;;;;;;;2.63;1.58;;;24.10;56.10;;;;;;5047451;27;114562;-77
2023/08/28 02:34:42;;;;;;;3.22;1.67;;;24.10;56.20;;;;;;5029991;27;114340;-77
2023/08/28 02:37:09;;;;;;;3.03;1.60;;;24.00;56.40;;;;;;5029432;27;114855;-77
2023/08/28 02:39:36;;;;;;;2.45;1.50;;;24.00;56.50;;;;;;5045875;27;116203;-77
2023/08/28 02:42:04;;;;;;;3.78;1.50;;;24.10;56.60;;;;;;5047110;27;114302;-77
2023/08/28 02:44:31;;;;;;;2.55;1.83;;;24.10;56.40;;;;;;5047736;27;114111;-78
2023/08/28 02:46:58;;;;;;;3.28;1.65;;;24.00;55.80;;;;;;5045703;27;116780;-77
2023/08/28 02:49:25;;;;;;;2.28;1.30;;;23.90;56.50;;;;;;5047162;27;116085;-77
2023/08/28 02:51:52;;;;;;;2.40;1.40;;;23.90;56.50;;;;;;5047654;27;114455;-78
2023/08/28 02:54:19;;;;;;;4.28;1.85;;;23.90;56.60;;;;;;5046811;27;114283;-77
2023/08/28 02:56:46;;;;;;;4.80;1.60;;;23.80;56.70;;;;;;5045837;27;115490;-77
2023/08/28 02:59:13;;;;;;;2.53;1.35;;;23.90;56.60;;;;;;5045980;27;114380;-78
2023/08/28 03:01:40;;;;;;;2.20;1.50;;;23.80;56.80;;;;;;5046803;27;114239;-78
2023/08/28 03:04:07;;;;;;;3.10;1.35;;;23.90;56.70;;;;;;5048076;27;114255;-78
2023/08/28 03:06:39;;;;;;;3.17;1.60;;;23.90;56.40;;;;;;5045689;27;114882;-78
2023/08/28 03:09:10;;;;;;;3.60;1.70;;;23.90;56.20;;;;;;5046125;27;114944;-78
2023/08/28 03:11:37;;;;;;;3.10;1.60;;;23.90;55.90;;;;;;5047866;27;114122;-77
2023/08/28 03:14:04;;;;;;;4.55;1.67;;;23.90;56.30;;;;;;5045763;27;114302;-78
2023/08/28 03:16:31;;;;;;;3.40;1.30;;;23.90;56.60;;;;;;5045040;27;115334;-78
2023/08/28 03:18:59;;;;;;;2.47;1.60;;;23.90;56.60;;;;;;5028491;27;117560;-78
2023/08/28 03:21:26;;;;;;;2.58;1.58;;;23.90;56.70;;;;;;5029446;27;114381;-78
2023/08/28 03:23:53;;;;;;;3.50;1.73;;;23.90;56.40;;;;;;5029493;27;114245;-78
2023/08/28 03:26:20;;;;;;;2.25;1.40;;;23.90;55.50;;;;;;5046777;27;114927;-77
2023/08/28 03:28:47;;;;;;;3.78;1.42;;;23.90;56.40;;;;;;5045434;27;115193;-78
2023/08/28 03:31:14;;;;;;;4.07;1.50;;;23.90;55.80;;;;;;5046101;27;114282;-78
2023/08/28 03:33:43;;;;;;;2.53;1.58;;;23.80;56.50;;;;;;5046797;27;114133;-78
2023/08/28 03:36:10;;;;;;;3.55;1.83;;;23.80;56.70;;;;;;5046573;27;114836;-77
2023/08/28 03:38:37;;;;;;;2.45;1.52;;;23.70;56.40;;;;;;5046462;27;114647;-77
2023/08/28 03:41:08;;;;;;;2.72;1.33;;;23.70;55.90;;;;;;5047104;27;114198;-77
2023/08/28 03:43:35;;;;;;;2.35;1.50;;;23.70;56.90;;;;;;5046134;27;114222;-78
2023/08/28 03:46:02;;;;;;;2.42;1.27;;;23.70;57.00;;;;;;5011545;27;115002;-77
2023/08/28 03:48:29;;;;;;;2.72;1.42;;;23.70;56.70;;;;;;5044818;27;115964;-77
2023/08/28 03:50:56;;;;;;;2.70;1.58;;;23.70;56.80;;;;;;5045842;27;114388;-78
2023/08/28 03:53:23;;;;;;;5.13;1.63;;;23.70;56.80;;;;;;5047309;27;114104;-78
2023/08/28 03:55:50;;;;;;;4.18;1.50;;;23.70;56.70;;;;;;5044874;27;114890;-77
2023/08/28 03:58:17;;;;;;;3.63;1.55;;;23.70;56.90;;;;;;5045056;27;115757;-77
2023/08/28 04:00:44;;;;;;;3.00;1.35;;;23.80;56.30;;;;;;5046794;27;114019;-78
2023/08/28 04:03:11;;;;;;;3.95;1.50;;;23.70;56.90;;;;;;5046776;27;114209;-77
2023/08/28 04:05:39;;;;;;;3.35;1.30;;;23.80;56.70;;;;;;5044303;27;115624;-78
2023/08/28 04:08:06;;;;;;;3.55;1.50;;;23.80;56.70;;;;;;5028147;27;114670;-77
2023/08/28 04:10:33;;;;;;;3.83;1.42;;;23.80;56.50;;;;;;5045710;27;114472;-77
2023/08/28 04:13:00;;;;;;;2.90;1.63;;;23.90;56.50;;;;;;5045434;27;114606;-78
2023/08/28 04:15:28;;;;;;;3.88;1.40;;;23.90;55.90;;;;;;5045919;27;114947;-76
2023/08/28 04:17:57;;;;;;;2.30;1.30;;;24.00;56.10;;;;;;5044443;27;114620;-76
2023/08/28 04:20:24;;;;;;;2.90;1.40;;;24.00;56.10;;;;;;5046386;27;114330;-78
2023/08/28 04:22:53;;;;;;;3.53;1.60;;;24.00;55.90;;;;;;5047215;27;114332;-78
2023/08/28 04:25:20;;;;;;;3.53;1.85;;;23.90;55.50;;;;;;5045643;27;114852;-77
2023/08/28 04:27:47;;;;;;;2.65;1.52;;;24.00;55.00;;;;;;5044185;27;115727;-77
2023/08/28 04:30:17;;;;;;;2.75;1.60;;;23.90;55.80;;;;;;5044874;27;114463;-77
2023/08/28 04:32:44;;;;;;;3.33;1.58;;;23.90;55.90;;;;;;5045300;27;114405;-78
2023/08/28 04:35:11;;;;;;;4.82;2.20;;;23.90;55.60;;;;;;5044527;27;114990;-77
2023/08/28 04:37:38;;;;;;;3.35;1.52;;;23.90;54.70;;;;;;5045695;27;114936;-78
2023/08/28 04:40:07;;;;;;;3.05;1.70;;;23.90;55.50;;;;;;5028047;27;114476;-78
2023/08/28 04:42:35;;;;;;;3.20;1.75;;;23.90;55.20;;;;;;5028682;27;114355;-77
2023/08/28 04:45:03;;;;;;;3.50;1.95;;;23.80;55.70;;;;;;5044453;27;115580;-78
2023/08/28 04:47:30;;;;;;;3.33;2.08;;;23.80;55.20;;;;;;5045925;27;114599;-77
2023/08/28 04:49:57;;;;;;;2.65;1.60;;;23.80;55.30;;;;;;5028173;27;114090;-78
2023/08/28 04:52:24;;;;;;;3.05;1.80;;;23.80;55.90;;;;;;5028369;27;114551;-77
2023/08/28 04:54:51;;;;;;;3.17;1.92;;;23.80;55.70;;;;;;5026972;27;115069;-78
2023/08/28 04:57:18;;;;;;;4.53;2.38;;;23.90;55.60;;;;;;5043823;27;116008;-78
2023/08/28 04:59:45;;;;;;;4.05;2.53;;;23.80;54.90;;;;;;5044961;27;114347;-79
2023/08/28 05:02:12;;;;;;;5.03;3.00;;;23.80;55.00;;;;;;5046352;27;114194;-79
2023/08/28 05:04:39;;;;;;;5.22;2.58;;;23.80;55.70;;;;;;5044001;27;114987;-79
2023/08/28 05:07:07;;;;;;;3.67;2.67;;;23.70;55.20;;;;;;5027347;27;114794;-78
2023/08/28 05:09:34;;;;;;;4.45;2.83;;;23.60;55.20;;;;;;5045061;27;114283;-77
2023/08/28 05:12:01;;;;;;;4.10;2.75;;;23.60;55.50;;;;;;5045182;27;114465;-77
2023/08/28 05:14:31;;;;;;;4.53;3.08;;;23.50;56.00;;;;;;5043352;27;114844;-77
2023/08/28 05:16:58;;;;;;;4.80;2.95;;;23.50;56.10;;;;;;5043762;27;115278;-77
2023/08/28 05:19:25;;;;;;;5.60;3.25;;;23.50;56.10;;;;;;5043943;27;114352;-78
2023/08/28 05:21:52;;;;;;;5.15;2.88;;;23.60;56.00;;;;;;5045670;27;114218;-78
2023/08/28 05:24:19;;;;;;;4.57;2.60;;;23.50;56.10;;;;;;5043828;27;114969;-78
2023/08/28 05:26:47;;;;;;;4.32;2.70;;;23.60;56.30;;;;;;5043874;27;115032;-77
2023/08/28 05:29:14;;;;;;;4.53;2.65;;;23.50;56.00;;;;;;5044758;27;114356;-77
2023/08/28 05:31:41;;;;;;;3.35;2.22;;;23.40;56.40;;;;;;5044492;27;114168;-77
2023/08/28 05:34:10;;;;;;;5.35;2.72;;;23.40;56.80;;;;;;5043614;27;117927;-77
2023/08/28 05:36:37;;;;;;;5.30;3.13;;;23.40;56.40;;;;;;5027114;27;115154;-77
2023/08/28 05:39:04;;;;;;;4.78;2.55;;;23.50;55.90;;;;;;5045629;27;113955;-78
2023/08/28 05:41:31;;;;;;;4.28;2.17;;;23.60;55.90;;;;;;5044557;27;114466;-78
2023/08/28 05:43:58;;;;;;;5.25;2.63;;;23.60;56.00;;;;;;5043049;27;115113;-78
2023/08/28 05:46:25;;;;;;;3.67;2.33;;;23.60;55.60;;;;;;5026804;27;114674;-78
2023/08/28 05:48:54;;;;;;;4.55;2.80;;;23.50;56.00;;;;;;5044319;27;114180;-78
2023/08/28 05:51:22;;;;;;;4.43;2.72;;;23.50;55.20;;;;;;5043854;27;114391;-78
2023/08/28 05:53:49;;;;;;;4.25;2.50;;;23.40;54.70;;;;;;5047633;27;116012;-78
2023/08/28 05:56:16;;;;;;;4.30;2.70;;;23.30;56.00;;;;;;5046213;27;115148;-78
2023/08/28 05:58:43;;;;;;;4.32;2.80;;;23.30;55.70;;;;;;5047545;27;114279;-78
2023/08/28 06:01:10;;;;;;;5.05;2.63;;;23.30;55.20;;;;;;5047876;27;114378;-79
2023/08/28 06:03:38;;;;;;;4.28;2.47;;;23.20;56.30;;;;;;5047732;27;115096;-79
2023/08/28 06:06:05;;;;;;;5.75;3.10;;;23.20;56.60;;;;;;5046726;27;114637;-78
2023/08/28 06:08:32;;;;;;;4.68;2.83;;;23.20;55.60;;;;;;5048494;27;114353;-78
2023/08/28 06:10:59;;;;;;;4.70;2.75;;;23.20;55.90;;;;;;5047344;27;114355;-78
2023/08/28 06:13:26;;;;;;;4.20;2.72;;;23.00;56.20;;;;;;5046266;27;115914;-78
2023/08/28 06:15:57;;;;;;;6.65;3.35;;;22.90;56.30;;;;;;5046342;27;114689;-78
2023/08/28 06:18:24;;;;;;;4.32;2.70;;;23.00;56.60;;;;;;5047668;27;114094;-78
2023/08/28 06:20:51;;;;;;;7.25;3.60;;;23.00;56.60;;;;;;5048007;27;114369;-78
2023/08/28 06:23:18;;;;;;;6.65;3.90;;;23.00;56.20;;;;;;5047351;27;116191;-77
2023/08/28 06:25:47;;;;;;;6.18;3.13;;;23.00;56.30;;;;;;5029678;27;115740;-77
2023/08/28 06:28:14;;;;;;;4.85;3.15;;;22.90;56.70;;;;;;5048784;27;114434;-77
2023/08/28 06:30:41;;;;;;;7.05;3.85;;;22.90;56.50;;;;;;5048267;27;114172;-78
2023/08/28 06:33:08;;;;;;;5.38;3.03;;;22.80;56.70;;;;;;5045908;27;114975;-77
2023/08/28 06:35:36;;;;;;;5.30;3.75;;;22.80;57.40;;;;;;5047429;27;114904;-78
2023/08/28 06:38:03;;;;;;;5.63;3.65;;;22.90;57.00;;;;;;5051101;27;114490;-78
2023/08/28 06:40:30;;;;;;;5.63;3.70;;;22.90;57.20;;;;;;5048303;27;114357;-79
2023/08/28 06:42:57;;;;;;;7.50;3.40;;;22.80;56.80;;;;;;5045899;27;116151;-78
2023/08/28 06:45:24;;;;;;;6.05;3.30;;;22.80;57.10;;;;;;5046217;27;114771;-78
2023/08/28 06:47:52;;;;;;;11.85;4.32;;;22.80;57.70;;;;;;5030136;27;114364;-78
2023/08/28 06:50:19;;;;;;;8.02;4.70;;;22.80;57.40;;;;;;5048604;27;114417;-78
2023/08/28 06:52:46;;;;;;;6.47;4.15;;;22.90;57.10;;;;;;5046794;27;116036;-79
2023/08/28 06:55:13;;;;;;;6.18;3.50;;;22.90;57.30;;;;;;5047081;27;114642;-79
2023/08/28 06:57:40;;;;;;;8.00;3.80;;;22.80;57.70;;;;;;5046081;27;114193;-79
2023/08/28 07:00:11;;;;;;;5.78;3.88;;;22.80;57.40;;;;;;5047691;27;114240;-78
2023/08/28 07:02:38;;;;;;;7.70;4.90;;;22.80;57.60;;;;;;5046827;27;115002;-79
2023/08/28 07:05:05;;;;;;;6.50;3.28;;;22.80;57.20;;;;;;5046938;27;114641;-78
2023/08/28 07:07:35;;;;;;;8.10;4.60;;;22.90;57.30;;;;;;5029925;27;114135;-79
2023/08/28 07:10:04;;;;;;;7.82;4.43;;;23.00;57.00;;;;;;5013733;27;114280;-78
2023/08/28 07:12:32;;;;;;;7.57;4.45;;;23.00;56.90;;;;;;5046605;27;115143;-78
2023/08/28 07:15:18;;;;;;;6.70;4.88;;;22.90;56.90;;;;;;5045221;27;115877;-78
2023/08/28 07:17:45;;;;;;;7.75;5.07;;;23.00;57.00;;;;;;5047941;27;114168;-78
2023/08/28 07:20:12;;;;;;;6.97;3.95;;;22.90;56.90;;;;;;5046177;27;114404;-78
2023/08/28 07:22:39;;;;;;;7.95;4.70;;;22.90;57.00;;;;;;5046160;27;114855;-78
2023/08/28 07:25:07;;;;;;;7.50;5.00;;;22.80;56.60;;;;;;5046812;27;115727;-77
2023/08/28 07:27:34;;;;;;;7.05;3.97;;;22.80;57.00;;;;;;5047382;27;114131;-78
2023/08/28 07:30:05;;;;;;;6.68;4.18;;;22.80;57.20;;;;;;5029402;27;114333;-77
2023/08/28 07:32:32;;;;;;;7.97;5.05;;;22.80;57.20;;;;;;5046190;27;115453;-79
2023/08/28 07:35:00;;;;;;;8.82;4.53;;;22.80;57.00;;;;;;5028292;27;115035;-79
2023/08/28 07:37:30;;;;;;;6.30;4.07;;;22.80;57.00;;;;;;5047435;27;114278;-79
2023/08/28 07:39:57;;;;;;;6.15;4.30;;;22.80;56.90;;;;;;5046692;27;114122;-78
2023/08/28 07:42:24;;;;;;;7.57;4.95;;;22.90;56.90;;;;;;5046378;27;114914;-79
2023/08/28 07:44:52;;;;;;;8.15;5.38;;;22.90;57.00;;;;;;5046285;27;114700;-79
2023/08/28 07:47:19;;;;;;;6.10;4.50;;;22.90;56.50;;;;;;5046751;27;114352;-79
2023/08/28 07:49:47;;;;;;;7.43;5.18;;;22.80;56.90;;;;;;5046206;27;114364;-79
2023/08/28 07:52:14;;;;;;;8.10;5.28;;;22.80;56.60;;;;;;5044980;27;115100;-79
2023/08/28 07:54:41;;;;;;;7.22;5.15;;;22.70;56.60;;;;;;5028068;27;117830;-78
2023/08/28 07:57:08;;;;;;;7.55;5.30;;;22.60;56.50;;;;;;5046766;27;114022;-78
2023/08/28 07:59:36;;;;;;;7.82;5.63;;;22.50;56.70;;;;;;5047230;27;114490;-78
2023/08/28 08:02:10;;;;;;;6.82;4.70;;;22.40;56.40;;;;;;5044901;27;115010;-78
2023/08/28 08:04:37;;;;;;;9.35;4.80;;;22.30;57.70;;;;;;5046568;27;114628;-76
2023/08/28 08:07:04;;;;;;;6.85;4.00;;;22.30;57.80;;;;;;5045710;27;114240;-76
2023/08/28 08:09:31;;;;;;;6.10;3.80;;;22.40;57.50;;;;;;5047008;27;114252;-77
2023/08/28 08:11:58;;;;;;;7.93;4.75;;;22.50;57.60;;;;;;5045143;27;114877;-78
2023/08/28 08:14:25;;;;;;;5.40;3.72;;;22.60;56.70;;;;;;5044001;27;114568;-78
2023/08/28 08:16:52;;;;;;;6.25;4.07;;;22.50;57.30;;;;;;5046443;27;114296;-78
2023/08/28 08:19:19;;;;;;;6.60;4.00;;;22.60;56.90;;;;;;5046686;27;114428;-78
2023/08/28 08:21:46;;;;;;;6.03;3.90;;;22.70;56.90;;;;;;5045516;27;114817;-79
2023/08/28 08:24:13;;;;;;;6.28;4.07;;;22.70;56.90;;;;;;5044499;27;114951;-79
2023/08/28 08:26:40;;;;;;;8.82;4.30;;;22.70;56.90;;;;;;5045384;27;114164;-77
2023/08/28 08:29:07;;;;;;;6.28;4.20;;;22.80;56.70;;;;;;5045807;27;114366;-77
2023/08/28 08:31:35;;;;;;;6.30;4.40;;;22.70;56.60;;;;;;5044494;27;117711;-77
2023/08/28 08:34:02;;;;;;;6.95;4.40;;;22.70;56.50;;;;;;5045631;27;114607;-77
2023/08/28 08:36:29;;;;;;;5.80;3.85;;;22.70;56.60;;;;;;5028051;27;114983;-79
2023/08/28 08:38:56;;;;;;;7.18;4.50;;;22.70;57.00;;;;;;5045290;27;114314;-77
2023/08/28 08:41:23;;;;;;;6.45;3.90;;;22.70;56.80;;;;;;5045189;27;116188;-77
2023/08/28 08:43:53;;;;;;;7.78;4.82;;;22.80;57.10;;;;;;5045643;27;115414;-78
2023/08/28 08:46:20;;;;;;;6.47;4.93;;;22.80;56.40;;;;;;5044969;27;114347;-78
2023/08/28 08:48:47;;;;;;;6.20;4.30;;;22.60;56.30;;;;;;5045025;27;114694;-77
2023/08/28 08:51:14;;;;;;;8.15;5.25;;;22.50;56.80;;;;;;5044671;27;114907;-78
2023/08/28 08:53:45;;;;;;;8.18;4.82;;;22.50;56.80;;;;;;5045864;27;114785;-78
2023/08/28 08:56:17;;;;;;;6.57;5.28;;;22.40;57.20;;;;;;5045317;27;114263;-78
2023/08/28 08:58:44;;;;;;;8.82;6.65;;;22.50;57.20;;;;;;5028585;27;114423;-78
2023/08/28 09:01:11;;;;;;;8.23;6.15;;;22.40;57.00;;;;;;5027063;27;115004;-77
2023/08/28 09:03:38;;;;;;;9.75;7.18;;;22.30;57.10;;;;;;5027359;27;114771;-79
2023/08/28 09:06:07;;;;;;;8.00;6.60;;;22.30;57.10;;;;;;5044621;27;114228;-78
2023/08/28 09:08:35;;;;;;;8.48;6.65;;;22.30;57.30;;;;;;5046144;27;114484;-79
2023/08/28 09:11:04;;;;;;;8.25;6.15;;;22.30;57.20;;;;;;5045263;27;114905;-79
2023/08/28 09:13:32;;;;;;;9.15;7.25;;;22.30;57.60;;;;;;5027173;27;114666;-78
2023/08/28 09:15:59;;;;;;;9.55;5.93;;;22.30;57.50;;;;;;5046044;27;114077;-79
2023/08/28 09:18:26;;;;;;;11.27;8.30;;;22.30;57.70;;;;;;5046500;27;114104;-77
2023/08/28 09:21:10;;;;;;;11.85;9.23;;;22.30;57.60;;;;;;5044601;27;114974;-77
2023/08/28 09:23:44;;;;;;;7.95;7.15;;;22.40;57.10;;;;;;5045178;27;114579;-77
2023/08/28 09:26:19;;;;;;;10.25;7.50;;;22.30;57.40;;;;;;5012035;27;114457;-78
2023/08/28 09:29:06;;;;;;;7.22;6.20;;;22.20;57.60;;;;;;5047620;27;114424;-77
2023/08/28 09:31:37;;;;;;;9.45;6.00;;;22.30;57.80;;;;;;5047277;27;114964;-78
2023/08/28 09:34:04;;;;;;;8.32;6.78;;;22.20;58.20;;;;;;5046967;27;116666;-77
2023/08/28 09:36:36;;;;;;;8.30;6.43;;;22.30;58.20;;;;;;5049411;27;114160;-78
2023/08/28 09:39:08;;;;;;;9.80;7.40;;;22.40;57.90;;;;;;5016007;27;114132;-77
2023/08/28 09:41:46;;;;;;;8.30;6.60;;;22.60;57.50;;;;;;5048358;27;114828;-78
2023/08/28 09:44:17;;;;;;;8.50;6.97;;;22.60;57.40;;;;;;5047469;27;116031;-78
2023/08/28 09:46:44;;;;;;;9.13;6.72;;;22.50;57.30;;;;;;5048078;27;114337;-78
2023/08/28 09:49:13;;;;;;;11.32;8.05;;;22.50;57.60;;;;;;5048050;27;114336;-77
2023/08/28 09:51:44;;;;;;;9.20;7.80;;;22.50;57.30;;;;;;5047765;27;115277;-78
2023/08/28 09:54:12;;;;;;;9.40;7.60;;;22.40;57.50;;;;;;5048149;27;114637;-77
2023/08/28 09:56:40;;;;;;;6.80;6.10;;;22.30;57.80;;;;;;5048106;27;114309;-79
2023/08/28 09:59:07;;;;;;;9.38;7.28;;;22.30;58.10;;;;;;5014535;27;114524;-78
2023/08/28 10:01:35;;;;;;;9.35;7.38;;;22.30;58.10;;;;;;5046903;27;114916;-78
2023/08/28 10:04:06;;;;;;;9.80;7.30;;;22.30;58.00;;;;;;5047684;27;114879;-78
2023/08/28 10:06:35;;;;;;;8.27;7.28;;;22.30;57.80;;;;;;5048877;27;114338;-78
2023/08/28 10:09:05;;;;;;;10.50;8.15;;;22.30;58.00;;;;;;5049385;27;114278;-79
2023/08/28 10:11:39;;;;;;;12.85;9.10;;;22.20;58.10;;;;;;5047753;27;114896;-79
2023/08/28 10:14:06;;;;;;;8.90;7.60;;;22.20;57.80;;;;;;5046359;27;115186;-78
2023/08/28 10:16:38;;;;;;;9.55;6.15;;;22.10;58.40;;;;;;5047907;27;114227;-79
2023/08/28 10:19:25;;;;;;;7.82;7.03;;;22.20;58.70;;;;;;5047521;27;114402;-79
2023/08/28 10:21:52;;;;;;;8.20;6.63;;;22.30;58.30;;;;;;5047463;27;114913;-78
2023/08/28 10:24:19;;;;;;;10.93;7.13;;;22.30;58.00;;;;;;5045820;27;115175;-78
2023/08/28 10:26:47;;;;;;;7.72;6.93;;;22.40;57.70;;;;;;5047549;27;114145;-79
2023/08/28 10:29:18;;;;;;;8.43;6.57;;;22.30;57.50;;;;;;5030493;27;114306;-78
2023/08/28 10:31:45;;;;;;;9.98;7.50;;;22.30;57.80;;;;;;5045919;27;115546;-79
2023/08/28 10:34:12;;;;;;;8.95;6.88;;;22.30;57.60;;;;;;5046418;27;114660;-78
2023/08/28 10:36:39;;;;;;;9.77;7.72;;;22.30;57.70;;;;;;5030541;27;114586;-78
2023/08/28 10:39:27;;;;;;;8.77;7.80;;;22.30;57.70;;;;;;5046484;27;114289;-78
2023/08/28 10:41:54;;;;;;;9.98;8.55;;;22.30;57.30;;;;;;5046719;27;114947;-78
2023/08/28 10:44:21;;;;;;;12.32;8.98;;;22.20;57.10;;;;;;5046141;27;114737;-79
2023/08/28 10:46:51;;;;;;;10.63;9.05;;;22.00;57.30;;;;;;5030079;27;114445;-77
2023/08/28 10:49:18;;;;;;;8.93;7.47;;;21.80;58.10;;;;;;5048303;27;114205;-79
2023/08/28 10:51:46;;;;;;;11.70;9.25;;;21.70;58.60;;;;;;5045918;27;114945;-79
2023/08/28 10:54:13;;;;;;;9.73;8.10;;;21.60;58.90;;;;;;5029174;27;114778;-78
2023/08/28 10:56:40;;;;;;;10.43;8.88;;;21.50;59.10;;;;;;5048157;27;114250;-75
2023/08/28 10:59:24;;;;;;;9.48;8.43;;;21.50;59.30;;;;;;5046946;27;114334;-79
2023/08/28 11:02:00;;;;;;;10.65;8.05;;;21.50;59.40;;;;;;5045793;27;114940;-79
2023/08/28 11:04:35;;;;;;;10.80;8.90;;;21.60;59.50;;;;;;5029293;27;114965;-79
2023/08/28 11:07:03;;;;;;;10.43;9.25;;;21.70;59.30;;;;;;5046235;27;114287;-79
2023/08/28 11:09:32;;;;;;;9.40;8.23;;;21.80;58.70;;;;;;5057006;27;114155;-77
2023/08/28 11:12:02;;;;;;;9.82;8.82;;;21.70;58.90;;;;;;5034012;27;114305;-76
2023/08/28 11:14:39;;;;;;;9.90;8.07;;;21.70;58.80;;;;;;5046313;27;114545;-77
2023/08/28 11:17:20;;;;;;;10.80;7.85;;;21.80;58.50;;;;;;5046771;27;114303;-77
2023/08/28 11:19:54;;;;;;;9.75;8.40;;;21.70;58.80;;;;;;5047403;27;114290;-77
2023/08/28 11:22:34;;;;;;;10.00;8.90;;;21.80;58.70;;;;;;5046867;27;114900;-78
2023/08/28 11:25:04;;;;;;;9.10;7.47;;;21.90;58.20;;;;;;5045935;27;114563;-78
2023/08/28 11:27:45;;;;;;;7.82;6.40;;;21.70;58.20;;;;;;5047779;27;114439;-77
2023/08/28 11:30:13;;;;;;;10.20;6.43;;;21.60;58.20;;;;;;5046530;27;114186;-77
2023/08/28 11:32:42;;;;;;;9.25;6.75;;;21.40;58.80;;;;;;5044667;27;114423;-77
2023/08/28 11:35:10;;;;;;;10.23;7.45;;;21.20;59.00;;;;;;5045342;27;115209;-77
2023/08/28 11:37:39;;;;;;;9.63;6.95;;;21.10;59.70;;;;;;5047495;27;114424;-77
2023/08/28 11:40:08;;;;;;;11.40;6.57;;;21.00;60.00;;;;;;5046218;27;114200;-77
2023/08/28 11:42:38;;;;;;;9.07;7.00;;;21.00;60.40;;;;;;5045298;27;114926;-77
2023/08/28 11:45:06;;;;;;;8.32;7.40;;;20.80;60.80;;;;;;5046136;27;114643;-78
2023/08/28 11:47:34;;;;;;;9.20;7.38;;;20.80;60.90;;;;;;5045846;27;114141;-78
2023/08/28 11:50:04;;;;;;;11.10;7.47;;;20.90;61.00;;;;;;5046203;27;114472;-77
2023/08/28 11:52:31;;;;;;;8.82;6.93;;;21.00;61.10;;;;;;5046227;27;115044;-78
2023/08/28 11:55:00;;;;;;;9.45;7.35;;;21.10;61.00;;;;;;5046233;27;114844;-78
2023/08/28 11:57:28;;;;;;;10.77;7.85;;;21.10;61.00;;;;;;5028704;27;114324;-78
2023/08/28 11:59:56;;;;;;;10.90;8.20;;;21.00;61.10;;;;;;5045872;27;114401;-78
2023/08/28 12:02:23;;;;;;;9.50;6.60;;;21.00;61.20;;;;;;5045103;27;114945;-78
2023/08/28 12:04:50;;;;;;;11.27;7.72;;;20.90;61.60;;;;;;5044712;27;114689;-78
2023/08/28 12:07:22;;;;;;;8.00;7.18;;;21.00;61.70;;;;;;5047039;27;114138;-78
2023/08/28 12:09:49;;;;;;;9.88;7.00;;;21.00;61.50;;;;;;5047262;27;114175;-78
2023/08/28 12:12:16;;;;;;;10.05;6.18;;;20.90;61.40;;;;;;5044475;27;114762;-79
2023/08/28 12:14:44;;;;;;;7.80;6.47;;;20.80;61.40;;;;;;5045801;27;114585;-76
2023/08/28 12:17:20;;;;;;;7.43;5.35;;;20.80;61.30;;;;;;5046882;27;114207;-76
2023/08/28 12:19:48;;;;;;;8.23;6.10;;;20.80;61.80;;;;;;5044991;27;114517;-77
2023/08/28 12:22:16;;;;;;;8.05;6.10;;;20.80;61.40;;;;;;5027291;27;116344;-78
2023/08/28 12:24:44;;;;;;;8.15;6.00;;;20.80;61.50;;;;;;5045700;27;114710;-78
2023/08/28 12:27:12;;;;;;;6.32;5.03;;;20.90;61.50;;;;;;5045600;27;114436;-78
2023/08/28 12:29:41;;;;;;;7.60;5.43;;;20.90;61.30;;;;;;5045023;27;114370;-78
2023/08/28 12:32:09;;;;;;;8.00;5.88;;;21.00;61.20;;;;;;5045423;27;115204;-77
2023/08/28 12:34:37;;;;;;;8.30;6.40;;;21.00;61.00;;;;;;5044365;27;114605;-77
2023/08/28 12:37:05;;;;;;;8.13;5.93;;;20.90;61.30;;;;;;5045250;27;114291;-78
2023/08/28 12:39:33;;;;;;;8.15;6.15;;;20.80;61.50;;;;;;5046972;27;114150;-77
2023/08/28 12:42:00;;;;;;;8.38;5.93;;;20.70;61.90;;;;;;5045271;27;117140;-79